Time;durP1;ratioP1;P1;durP2;ratioP2;P2;SDS_P1;SDS_P2;PMS_P1;PMS_P2;Temp;Humidity;BMP_temperature;BMP_pressure;BME280_temperature;BME280_humidity;BME280_pressure;Samples;Min_cycle;Max_cycle;Signal;HPM_P1;HPM_P2
2022/07/15 00:01:51;;;;;;;6.22;1.40;;;;;;;;;;5031052;28;20285;-62
2022/07/15 00:04:17;;;;;;;7.22;1.60;;;;;;;;;;4973005;28;1155632;-62
2022/07/15 00:06:42;;;;;;;8.15;1.77;;;;;;;;;;5031531;28;20207;-62
2022/07/15 00:09:08;;;;;;;7.95;1.70;;;;;;;;;;5023599;28;20293;-63
2022/07/15 00:11:34;;;;;;;9.18;1.65;;;;;;;;;;5015697;28;20211;-63
2022/07/15 00:14:00;;;;;;;10.57;2.67;;;;;;;;;;5013811;28;20743;-62
2022/07/15 00:16:25;;;;;;;7.00;2.00;;;;;;;;;;4984806;28;20216;-62
2022/07/15 00:18:50;;;;;;;8.80;1.50;;;;;;;;;;5014826;28;20228;-62
2022/07/15 00:21:16;;;;;;;6.80;1.70;;;;;;;;;;5020888;28;20697;-62
2022/07/15 00:23:41;;;;;;;6.95;1.75;;;;;;;;;;5021952;28;20227;-62
2022/07/15 00:26:06;;;;;;;7.05;1.60;;;;;;;;;;5018775;28;20217;-63
2022/07/15 00:28:31;;;;;;;8.52;1.90;;;;;;;;;;5001653;28;20221;-63
2022/07/15 00:30:57;;;;;;;7.95;1.67;;;;;;;;;;5002846;28;20255;-62
2022/07/15 00:33:22;;;;;;;6.63;1.58;;;;;;;;;;5001995;28;20295;-63
2022/07/15 00:35:48;;;;;;;6.38;1.50;;;;;;;;;;5001963;28;20259;-63
2022/07/15 00:38:13;;;;;;;6.18;1.77;;;;;;;;;;5002173;28;20291;-63
2022/07/15 00:40:39;;;;;;;7.78;1.63;;;;;;;;;;5001843;28;20213;-63
2022/07/15 00:43:05;;;;;;;6.45;1.50;;;;;;;;;;4984806;28;20572;-63
2022/07/15 00:45:30;;;;;;;8.85;1.48;;;;;;;;;;5021381;28;20626;-62
2022/07/15 00:47:56;;;;;;;7.88;1.80;;;;;;;;;;5020907;28;20216;-62
2022/07/15 00:50:22;;;;;;;11.25;1.90;;;;;;;;;;5021489;28;20220;-62
2022/07/15 00:52:49;;;;;;;6.60;1.48;;;;;;;;;;5021798;28;20220;-62
2022/07/15 00:55:15;;;;;;;7.63;1.90;;;;;;;;;;5021181;28;20227;-62
2022/07/15 00:57:41;;;;;;;6.70;1.58;;;;;;;;;;5003863;28;20223;-63
2022/07/15 01:00:08;;;;;;;7.18;1.90;;;;;;;;;;5007095;28;20259;-62
2022/07/15 01:02:34;;;;;;;4.93;1.55;;;;;;;;;;5006866;28;20207;-62
2022/07/15 01:05:00;;;;;;;4.55;1.50;;;;;;;;;;5025200;28;20413;-62
2022/07/15 01:07:25;;;;;;;7.43;1.80;;;;;;;;;;5015182;28;20285;-63
2022/07/15 01:09:50;;;;;;;6.38;1.45;;;;;;;;;;5024882;28;20223;-62
2022/07/15 01:12:16;;;;;;;7.05;1.70;;;;;;;;;;5024283;28;20232;-62
2022/07/15 01:14:41;;;;;;;6.20;1.45;;;;;;;;;;5019738;28;20266;-63
2022/07/15 01:17:10;;;;;;;5.97;1.77;;;;;;;;;;5005015;28;20217;-63
2022/07/15 01:19:35;;;;;;;8.43;1.67;;;;;;;;;;5024983;28;20262;-63
2022/07/15 01:22:01;;;;;;;6.25;1.70;;;;;;;;;;5024748;28;20204;-63
2022/07/15 01:24:26;;;;;;;6.70;1.55;;;;;;;;;;5024624;28;20306;-62
2022/07/15 01:26:51;;;;;;;7.07;1.48;;;;;;;;;;5024410;28;20303;-75
2022/07/15 01:29:17;;;;;;;10.77;2.08;;;;;;;;;;5021881;28;20196;-76
2022/07/15 01:31:42;;;;;;;6.25;1.40;;;;;;;;;;5004424;28;20216;-75
2022/07/15 01:34:07;;;;;;;6.15;1.90;;;;;;;;;;5004833;28;20307;-75
2022/07/15 01:36:33;;;;;;;5.15;1.67;;;;;;;;;;5004995;28;20255;-76
2022/07/15 01:38:59;;;;;;;5.65;1.60;;;;;;;;;;5004088;28;20224;-74
2022/07/15 01:41:24;;;;;;;7.93;2.30;;;;;;;;;;5004617;28;20303;-76
2022/07/15 01:43:49;;;;;;;7.30;1.73;;;;;;;;;;5004860;28;20287;-76
2022/07/15 01:46:14;;;;;;;11.93;2.55;;;;;;;;;;5003955;28;20224;-76
2022/07/15 01:51:23;;;;;;;5.80;1.58;;;;;;;;;;5008001;28;20238;-76
2022/07/15 01:53:49;;;;;;;7.45;2.08;;;;;;;;;;5024609;28;20673;-76
2022/07/15 01:56:14;;;;;;;5.45;1.75;;;;;;;;;;5023646;28;20214;-76
2022/07/15 01:58:41;;;;;;;6.95;2.03;;;;;;;;;;5023511;28;20335;-76
2022/07/15 02:01:07;;;;;;;10.35;2.20;;;;;;;;;;5023563;28;20644;-77
2022/07/15 02:03:33;;;;;;;9.02;2.35;;;;;;;;;;5023428;28;20227;-76
2022/07/15 02:05:58;;;;;;;5.43;2.10;;;;;;;;;;5023465;28;20318;-78
2022/07/15 02:08:24;;;;;;;9.75;2.20;;;;;;;;;;5008425;28;20221;-75
2022/07/15 02:10:49;;;;;;;8.82;2.40;;;;;;;;;;5003907;28;21028;-75
2022/07/15 02:13:14;;;;;;;7.28;2.17;;;;;;;;;;5003299;28;20671;-75
2022/07/15 02:15:40;;;;;;;12.73;2.40;;;;;;;;;;5005296;28;20216;-75
2022/07/15 02:18:05;;;;;;;9.55;2.00;;;;;;;;;;4996452;28;20212;-73
2022/07/15 02:20:31;;;;;;;9.25;2.10;;;;;;;;;;5004715;28;20224;-76
2022/07/15 02:22:57;;;;;;;7.53;1.95;;;;;;;;;;5024018;28;20686;-74
2022/07/15 02:25:25;;;;;;;8.93;1.98;;;;;;;;;;5005426;28;20294;-74
2022/07/15 02:27:53;;;;;;;8.60;1.95;;;;;;;;;;5022397;28;20748;-75
2022/07/15 02:30:18;;;;;;;10.43;2.47;;;;;;;;;;5012224;28;20216;-74
2022/07/15 02:32:43;;;;;;;11.38;2.45;;;;;;;;;;5004132;28;20223;-75
2022/07/15 02:35:09;;;;;;;11.38;2.20;;;;;;;;;;5002928;28;21044;-75
2022/07/15 02:37:34;;;;;;;6.07;2.17;;;;;;;;;;5003951;28;20209;-74
2022/07/15 02:40:00;;;;;;;5.07;1.90;;;;;;;;;;5004135;28;20221;-75
2022/07/15 02:42:25;;;;;;;7.10;1.95;;;;;;;;;;5002999;28;20223;-75
2022/07/15 02:44:50;;;;;;;9.30;2.58;;;;;;;;;;5003556;28;20220;-75
2022/07/15 02:47:16;;;;;;;6.45;1.80;;;;;;;;;;5003215;28;20700;-75
2022/07/15 02:49:42;;;;;;;7.68;2.00;;;;;;;;;;5022474;28;20302;-74
2022/07/15 02:52:07;;;;;;;7.63;2.00;;;;;;;;;;5022986;28;20733;-74
2022/07/15 02:54:32;;;;;;;7.22;1.90;;;;;;;;;;5022452;28;20595;-76
2022/07/15 02:56:57;;;;;;;5.90;1.75;;;;;;;;;;5022879;28;20345;-77
2022/07/15 02:59:23;;;;;;;7.07;1.63;;;;;;;;;;5021893;28;20216;-75
2022/07/15 03:01:48;;;;;;;4.75;1.70;;;;;;;;;;5022339;28;20212;-76
2022/07/15 03:04:13;;;;;;;5.93;1.80;;;;;;;;;;5022154;28;20215;-74
2022/07/15 03:06:39;;;;;;;8.60;2.00;;;;;;;;;;5022226;28;20297;-75
2022/07/15 03:09:05;;;;;;;8.48;1.95;;;;;;;;;;5002429;28;20208;-75
2022/07/15 03:11:30;;;;;;;8.02;1.70;;;;;;;;;;5022742;28;20690;-74
2022/07/15 03:13:56;;;;;;;9.18;1.95;;;;;;;;;;5022595;28;20219;-73
2022/07/15 03:16:21;;;;;;;4.70;1.70;;;;;;;;;;5002827;28;20235;-75
2022/07/15 03:18:47;;;;;;;7.28;2.10;;;;;;;;;;5017896;28;20224;-75
2022/07/15 03:21:12;;;;;;;7.03;1.70;;;;;;;;;;5021621;28;20223;-74
2022/07/15 03:23:37;;;;;;;7.93;1.70;;;;;;;;;;5021946;28;20218;-76
2022/07/15 03:26:03;;;;;;;6.28;1.77;;;;;;;;;;5021872;28;20235;-77
2022/07/15 03:28:28;;;;;;;7.45;1.85;;;;;;;;;;5022865;28;20220;-77
2022/07/15 03:30:53;;;;;;;9.32;1.88;;;;;;;;;;5005973;28;20217;-78
2022/07/15 03:33:19;;;;;;;5.43;1.70;;;;;;;;;;5002941;28;20212;-76
2022/07/15 03:35:44;;;;;;;6.68;1.48;;;;;;;;;;5002839;28;20235;-75
2022/07/15 03:38:09;;;;;;;7.28;1.65;;;;;;;;;;5002351;28;20264;-76
2022/07/15 03:40:34;;;;;;;7.07;1.63;;;;;;;;;;5003088;28;20585;-77
2022/07/15 03:43:00;;;;;;;4.68;1.40;;;;;;;;;;5002997;28;20240;-77
2022/07/15 03:45:25;;;;;;;5.72;1.58;;;;;;;;;;5003211;28;20302;-78
2022/07/15 03:47:50;;;;;;;7.80;1.55;;;;;;;;;;5022047;28;20215;-76
2022/07/15 03:50:16;;;;;;;6.13;1.55;;;;;;;;;;5020622;28;20208;-77
2022/07/15 03:52:41;;;;;;;7.47;1.75;;;;;;;;;;5003921;28;20678;-77
2022/07/15 03:55:09;;;;;;;5.85;1.38;;;;;;;;;;5021908;28;20636;-77
2022/07/15 03:57:34;;;;;;;5.68;1.42;;;;;;;;;;5021548;28;20220;-76
2022/07/15 04:00:00;;;;;;;8.52;1.38;;;;;;;;;;5021880;28;20220;-76
2022/07/15 04:02:25;;;;;;;9.10;1.98;;;;;;;;;;5022032;28;20214;-76
2022/07/15 04:04:52;;;;;;;5.53;1.50;;;;;;;;;;5021390;28;20231;-78
2022/07/15 04:07:17;;;;;;;4.57;1.60;;;;;;;;;;5016652;28;20249;-76
2022/07/15 04:09:42;;;;;;;7.13;1.42;;;;;;;;;;5002911;28;20239;-78
2022/07/15 04:12:08;;;;;;;9.27;1.60;;;;;;;;;;5001572;28;20212;-75
2022/07/15 04:14:33;;;;;;;4.53;1.48;;;;;;;;;;5002476;28;20687;-78
2022/07/15 04:16:58;;;;;;;7.55;1.70;;;;;;;;;;5002645;28;20212;-78
2022/07/15 04:19:23;;;;;;;5.93;1.50;;;;;;;;;;5001763;28;20251;-79
2022/07/15 04:21:49;;;;;;;11.10;1.83;;;;;;;;;;5002682;28;20630;-77
2022/07/15 04:24:14;;;;;;;10.10;1.90;;;;;;;;;;5002033;28;20223;-76
2022/07/15 04:26:40;;;;;;;7.45;1.50;;;;;;;;;;5002273;28;20671;-77
2022/07/15 04:29:06;;;;;;;6.15;1.77;;;;;;;;;;5002045;28;20338;-77
2022/07/15 04:31:31;;;;;;;11.32;1.83;;;;;;;;;;5002642;28;20307;-76
2022/07/15 04:33:57;;;;;;;7.45;1.58;;;;;;;;;;5003848;28;20262;-76
2022/07/15 04:36:23;;;;;;;7.70;1.50;;;;;;;;;;5005601;28;20266;-75
2022/07/15 04:38:48;;;;;;;8.38;1.50;;;;;;;;;;5006594;28;20220;-76
2022/07/15 04:41:13;;;;;;;10.52;1.60;;;;;;;;;;5004585;28;20687;-75
2022/07/15 04:43:38;;;;;;;7.15;1.60;;;;;;;;;;5006337;28;20683;-76
2022/07/15 04:46:04;;;;;;;9.02;1.70;;;;;;;;;;5005264;28;20248;-76
2022/07/15 04:51:13;;;;;;;4.63;1.60;;;;;;;;;;5017112;28;20219;-62
2022/07/15 04:53:39;;;;;;;5.90;2.00;;;;;;;;;;5005033;28;20427;-61
2022/07/15 04:56:04;;;;;;;6.43;2.03;;;;;;;;;;5005081;28;20251;-61
2022/07/15 04:58:29;;;;;;;8.38;1.70;;;;;;;;;;5007165;28;20252;-60
2022/07/15 05:00:55;;;;;;;7.45;1.77;;;;;;;;;;5006678;28;20682;-61
2022/07/15 05:03:20;;;;;;;7.10;1.70;;;;;;;;;;5006782;28;20450;-60
2022/07/15 05:05:45;;;;;;;7.13;1.50;;;;;;;;;;5017610;28;20220;-61
2022/07/15 05:08:11;;;;;;;5.78;1.67;;;;;;;;;;5028266;28;20675;-61
2022/07/15 05:10:36;;;;;;;6.60;1.65;;;;;;;;;;5025380;28;20677;-61
2022/07/15 05:13:02;;;;;;;7.60;1.70;;;;;;;;;;5033235;28;20211;-61
2022/07/15 05:15:27;;;;;;;8.10;1.95;;;;;;;;;;5043418;28;20294;-61
2022/07/15 05:17:53;;;;;;;8.93;1.80;;;;;;;;;;5037818;28;20316;-62
2022/07/15 05:20:18;;;;;;;6.93;1.50;;;;;;;;;;5021397;28;20687;-61
2022/07/15 05:22:43;;;;;;;7.50;1.60;;;;;;;;;;5015119;28;20216;-61
2022/07/15 05:25:09;;;;;;;8.80;1.60;;;;;;;;;;5024097;28;20208;-61
2022/07/15 05:27:34;;;;;;;7.28;1.60;;;;;;;;;;5025121;28;20212;-60
2022/07/15 05:30:00;;;;;;;7.90;1.58;;;;;;;;;;5024971;28;20207;-61
2022/07/15 05:32:25;;;;;;;6.82;1.50;;;;;;;;;;5043090;28;20650;-61
2022/07/15 05:34:51;;;;;;;7.22;1.25;;;;;;;;;;5041530;28;20281;-62
2022/07/15 05:37:16;;;;;;;6.97;1.40;;;;;;;;;;5033746;28;20258;-61
2022/07/15 05:39:53;;;;;;;6.22;1.70;;;;;;;;;;5034460;28;20223;-62
2022/07/15 05:42:19;;;;;;;6.07;1.30;;;;;;;;;;5034184;28;20238;-62
2022/07/15 05:44:44;;;;;;;5.50;1.40;;;;;;;;;;5033868;28;20565;-61
2022/07/15 05:47:09;;;;;;;6.53;1.40;;;;;;;;;;5034257;28;20204;-63
2022/07/15 05:49:35;;;;;;;5.97;1.40;;;;;;;;;;5034607;28;20219;-61
2022/07/15 05:52:00;;;;;;;5.35;1.60;;;;;;;;;;5033818;28;20207;-62
2022/07/15 05:54:25;;;;;;;8.30;1.58;;;;;;;;;;5039267;28;20211;-62
2022/07/15 05:56:51;;;;;;;6.82;1.40;;;;;;;;;;5054183;28;20218;-63
2022/07/15 05:59:16;;;;;;;7.70;1.35;;;;;;;;;;5033146;28;20226;-62
2022/07/15 06:01:41;;;;;;;5.78;1.30;;;;;;;;;;5053895;28;20811;-62
2022/07/15 06:04:06;;;;;;;4.95;1.50;;;;;;;;;;5053374;28;20203;-63
2022/07/15 06:06:32;;;;;;;10.05;1.38;;;;;;;;;;5040146;28;20227;-63
2022/07/15 06:08:57;;;;;;;4.68;1.33;;;;;;;;;;5033362;28;20211;-62
2022/07/15 06:11:22;;;;;;;9.70;1.73;;;;;;;;;;5049049;28;20222;-63
2022/07/15 06:13:48;;;;;;;8.10;1.30;;;;;;;;;;5024724;28;20220;-62
2022/07/15 06:16:13;;;;;;;5.13;1.30;;;;;;;;;;5032118;28;20615;-62
2022/07/15 06:18:38;;;;;;;7.57;1.33;;;;;;;;;;5032988;28;20721;-62
2022/07/15 06:21:04;;;;;;;5.43;1.40;;;;;;;;;;5033344;28;20671;-63
2022/07/15 06:23:29;;;;;;;5.57;1.35;;;;;;;;;;5033484;28;20204;-62
2022/07/15 06:25:55;;;;;;;5.03;1.20;;;;;;;;;;5032923;28;20250;-63
2022/07/15 06:28:21;;;;;;;6.80;1.15;;;;;;;;;;5033422;28;20223;-63
2022/07/15 06:30:46;;;;;;;6.22;1.10;;;;;;;;;;5024585;28;20212;-62
2022/07/15 06:33:11;;;;;;;6.63;1.50;;;;;;;;;;5021917;28;20700;-61
2022/07/15 06:35:37;;;;;;;9.52;1.50;;;;;;;;;;5024956;28;20223;-62
2022/07/15 06:38:02;;;;;;;6.53;1.20;;;;;;;;;;5021684;28;20235;-62
2022/07/15 06:40:27;;;;;;;4.03;0.90;;;;;;;;;;5019215;28;20686;-61
2022/07/15 06:42:53;;;;;;;6.13;1.00;;;;;;;;;;5027844;28;20212;-62
2022/07/15 06:45:18;;;;;;;6.03;0.90;;;;;;;;;;5032906;28;20224;-61
2022/07/15 06:47:43;;;;;;;4.90;1.30;;;;;;;;;;5032777;28;20250;-62
2022/07/15 06:50:09;;;;;;;8.40;1.20;;;;;;;;;;5032354;28;20586;-62
2022/07/15 06:52:35;;;;;;;4.85;0.90;;;;;;;;;;5032037;28;20232;-62
2022/07/15 06:55:00;;;;;;;6.00;1.00;;;;;;;;;;5031647;28;20212;-63
2022/07/15 06:57:28;;;;;;;3.53;0.80;;;;;;;;;;5032412;28;20655;-61
2022/07/15 06:59:53;;;;;;;7.05;1.13;;;;;;;;;;5030755;28;20220;-62
2022/07/15 07:02:19;;;;;;;4.97;1.00;;;;;;;;;;5027694;28;20204;-62
2022/07/15 07:04:45;;;;;;;8.27;1.20;;;;;;;;;;5022372;28;20754;-62
2022/07/15 07:07:10;;;;;;;4.10;0.88;;;;;;;;;;5018519;28;20215;-62
2022/07/15 07:09:35;;;;;;;5.50;0.82;;;;;;;;;;5012055;28;20216;-62
2022/07/15 07:12:00;;;;;;;4.53;1.00;;;;;;;;;;5012776;28;20282;-63
2022/07/15 07:14:26;;;;;;;3.50;0.80;;;;;;;;;;5017107;28;20663;-63
2022/07/15 07:16:51;;;;;;;3.83;0.73;;;;;;;;;;5032220;28;20203;-62
2022/07/15 07:19:17;;;;;;;3.38;0.70;;;;;;;;;;5032197;28;20319;-63
2022/07/15 07:21:42;;;;;;;2.97;0.60;;;;;;;;;;5032127;28;20208;-63
2022/07/15 07:24:07;;;;;;;4.55;0.70;;;;;;;;;;5032222;28;20223;-63
2022/07/15 07:26:33;;;;;;;2.90;0.70;;;;;;;;;;5032387;28;20563;-62
2022/07/15 07:28:58;;;;;;;4.65;0.77;;;;;;;;;;5031809;28;20211;-63
2022/07/15 07:31:26;;;;;;;2.08;0.60;;;;;;;;;;5032000;28;20207;-62
2022/07/15 07:33:52;;;;;;;2.38;0.75;;;;;;;;;;5032756;28;20310;-63
2022/07/15 07:36:17;;;;;;;2.67;0.60;;;;;;;;;;5031020;28;20219;-63
2022/07/15 07:38:42;;;;;;;1.95;0.50;;;;;;;;;;5032094;28;20215;-63
2022/07/15 07:41:08;;;;;;;2.55;0.60;;;;;;;;;;5031704;28;20214;-64
2022/07/15 07:43:34;;;;;;;3.67;0.60;;;;;;;;;;5031557;28;20215;-64
2022/07/15 07:46:00;;;;;;;3.50;0.73;;;;;;;;;;5032471;28;20228;-64
2022/07/15 07:48:26;;;;;;;4.28;0.70;;;;;;;;;;5031945;28;20208;-62
2022/07/15 07:50:53;;;;;;;2.33;0.60;;;;;;;;;;5031581;28;20215;-63
2022/07/15 07:53:18;;;;;;;4.93;0.73;;;;;;;;;;5031377;28;20204;-63
2022/07/15 07:55:43;;;;;;;3.28;0.55;;;;;;;;;;5032071;28;20222;-63
2022/07/15 07:58:09;;;;;;;2.85;0.60;;;;;;;;;;5031033;28;20203;-63
2022/07/15 08:00:34;;;;;;;4.10;0.95;;;;;;;;;;5032241;28;20587;-63
2022/07/15 08:02:59;;;;;;;5.32;0.70;;;;;;;;;;5031760;28;20644;-64
2022/07/15 08:05:25;;;;;;;3.05;0.60;;;;;;;;;;5022011;28;20242;-64
2022/07/15 08:07:51;;;;;;;2.58;0.40;;;;;;;;;;5031881;28;20231;-64
2022/07/15 08:10:16;;;;;;;2.42;0.38;;;;;;;;;;5035968;28;20231;-64
2022/07/15 08:12:42;;;;;;;1.65;0.40;;;;;;;;;;5034745;28;20228;-63
2022/07/15 08:15:08;;;;;;;3.03;0.57;;;;;;;;;;5035501;28;20222;-64
2022/07/15 08:17:34;;;;;;;2.47;0.50;;;;;;;;;;5036068;28;20219;-64
2022/07/15 08:19:59;;;;;;;1.48;0.55;;;;;;;;;;5035186;28;20227;-63
2022/07/15 08:22:25;;;;;;;2.47;0.63;;;;;;;;;;5017531;28;20211;-64
2022/07/15 08:24:50;;;;;;;1.73;0.40;;;;;;;;;;5035402;28;20616;-64
2022/07/15 08:27:17;;;;;;;2.40;0.47;;;;;;;;;;5035130;28;20227;-63
2022/07/15 08:29:43;;;;;;;2.67;0.52;;;;;;;;;;5018528;28;20226;-63
2022/07/15 08:32:08;;;;;;;3.30;0.50;;;;;;;;;;5034640;28;20612;-63
2022/07/15 08:34:34;;;;;;;2.85;0.80;;;;;;;;;;5035884;28;20224;-63
2022/07/15 08:36:59;;;;;;;4.38;0.57;;;;;;;;;;5032704;28;20253;-63
2022/07/15 08:39:25;;;;;;;4.68;0.50;;;;;;;;;;5034440;28;21121;-63
2022/07/15 08:41:50;;;;;;;3.13;0.47;;;;;;;;;;5035610;28;20208;-63
2022/07/15 08:44:16;;;;;;;2.90;0.43;;;;;;;;;;5033983;28;20212;-63
2022/07/15 08:46:41;;;;;;;4.07;0.60;;;;;;;;;;5033670;28;20220;-64
2022/07/15 08:49:09;;;;;;;2.67;0.40;;;;;;;;;;5035132;28;20302;-64
2022/07/15 08:51:37;;;;;;;2.88;0.40;;;;;;;;;;5034331;28;20212;-64
2022/07/15 08:54:02;;;;;;;2.08;0.30;;;;;;;;;;5034197;28;20207;-63
2022/07/15 08:56:28;;;;;;;2.30;0.43;;;;;;;;;;5035461;28;20295;-63
2022/07/15 08:58:53;;;;;;;2.33;0.47;;;;;;;;;;5026223;28;20247;-63
2022/07/15 09:01:18;;;;;;;3.33;0.60;;;;;;;;;;5028262;28;20222;-63
2022/07/15 09:03:44;;;;;;;2.92;0.43;;;;;;;;;;5035347;28;20204;-63
2022/07/15 09:06:09;;;;;;;3.17;0.40;;;;;;;;;;5034533;28;20231;-63
2022/07/15 09:08:34;;;;;;;2.95;0.43;;;;;;;;;;5016107;28;20215;-64
2022/07/15 09:11:00;;;;;;;3.65;0.68;;;;;;;;;;5035007;28;20215;-64
2022/07/15 09:13:25;;;;;;;2.85;0.50;;;;;;;;;;5054572;28;20678;-64
2022/07/15 09:15:51;;;;;;;2.45;0.50;;;;;;;;;;5054128;28;20207;-63
2022/07/15 09:18:18;;;;;;;1.90;0.40;;;;;;;;;;5054676;28;20238;-64
2022/07/15 09:20:44;;;;;;;2.65;0.50;;;;;;;;;;5036497;28;20211;-63
2022/07/15 09:23:10;;;;;;;3.15;0.50;;;;;;;;;;5052114;28;20215;-63
2022/07/15 09:25:36;;;;;;;4.85;0.65;;;;;;;;;;5048049;28;20211;-63
2022/07/15 09:28:02;;;;;;;3.50;0.52;;;;;;;;;;5045140;28;20582;-64
2022/07/15 09:36:08;;;;;;;2.33;0.50;;;;;;;;;;5022407;28;20286;-63
2022/07/15 09:38:35;;;;;;;3.25;0.55;;;;;;;;;;5033777;28;20222;-63
2022/07/15 09:41:01;;;;;;;1.05;0.35;;;;;;;;;;5034285;28;20215;-63
2022/07/15 09:43:26;;;;;;;2.42;0.73;;;;;;;;;;5033380;28;20208;-64
2022/07/15 09:45:59;;;;;;;2.03;0.40;;;;;;;;;;5041182;28;20212;-63
2022/07/15 09:48:25;;;;;;;4.13;0.43;;;;;;;;;;5034200;28;20661;-64
2022/07/15 09:50:50;;;;;;;3.22;0.60;;;;;;;;;;5020603;28;20204;-63
2022/07/15 09:53:16;;;;;;;3.47;0.70;;;;;;;;;;5013919;28;20589;-63
2022/07/15 09:55:41;;;;;;;3.88;0.80;;;;;;;;;;5026945;28;20273;-63
2022/07/15 09:58:08;;;;;;;1.65;0.60;;;;;;;;;;5049908;28;20215;-63
2022/07/15 10:00:33;;;;;;;4.97;0.60;;;;;;;;;;5054168;28;20759;-62
2022/07/15 10:02:59;;;;;;;3.63;0.60;;;;;;;;;;5054212;28;20207;-63
2022/07/15 10:05:27;;;;;;;3.92;0.47;;;;;;;;;;5034986;28;20284;-63
2022/07/15 10:07:55;;;;;;;3.53;0.50;;;;;;;;;;5034304;28;20215;-64
2022/07/15 10:10:21;;;;;;;3.30;0.65;;;;;;;;;;5021473;28;20219;-64
2022/07/15 10:13:06;;;;;;;2.65;0.50;;;;;;;;;;5033998;28;20215;-64
2022/07/15 10:15:44;;;;;;;3.17;0.50;;;;;;;;;;5023544;28;20240;-63
2022/07/15 10:18:21;;;;;;;3.60;0.80;;;;;;;;;;5013127;28;20212;-63
2022/07/15 10:20:47;;;;;;;4.13;0.80;;;;;;;;;;5005032;28;20254;-63
2022/07/15 10:23:19;;;;;;;7.28;0.90;;;;;;;;;;5012965;28;20240;-63
2022/07/15 10:26:05;;;;;;;5.20;1.00;;;;;;;;;;4995774;28;20204;-64
2022/07/15 10:28:36;;;;;;;2.38;0.60;;;;;;;;;;5033305;28;20215;-63
2022/07/15 10:31:12;;;;;;;3.35;0.60;;;;;;;;;;5032237;28;20211;-63
2022/07/15 10:33:37;;;;;;;4.95;0.73;;;;;;;;;;5052735;28;20214;-63
2022/07/15 10:36:03;;;;;;;5.10;0.50;;;;;;;;;;5053170;28;20211;-64
2022/07/15 10:38:28;;;;;;;4.40;0.85;;;;;;;;;;5052450;28;20261;-63
2022/07/15 10:40:57;;;;;;;3.72;0.82;;;;;;;;;;5053403;28;20685;-63
2022/07/15 10:43:44;;;;;;;4.63;0.90;;;;;;;;;;5052924;28;20207;-63
2022/07/15 10:46:18;;;;;;;4.93;0.68;;;;;;;;;;5051836;28;20750;-63
2022/07/15 10:48:44;;;;;;;4.95;1.40;;;;;;;;;;5053416;28;20744;-64
2022/07/15 10:51:09;;;;;;;4.60;0.80;;;;;;;;;;5052455;28;20247;-63
2022/07/15 10:53:42;;;;;;;4.65;0.77;;;;;;;;;;5052579;28;20214;-64
2022/07/15 10:56:27;;;;;;;5.35;0.80;;;;;;;;;;5052665;28;20211;-63
2022/07/15 10:59:14;;;;;;;4.47;0.70;;;;;;;;;;5053135;28;20227;-63
2022/07/15 11:01:39;;;;;;;6.50;0.80;;;;;;;;;;5039067;28;20683;-62
2022/07/15 11:04:15;;;;;;;3.03;0.80;;;;;;;;;;5023178;28;20218;-63
2022/07/15 11:06:59;;;;;;;4.55;1.30;;;;;;;;;;4992780;28;20312;-63
2022/07/15 11:09:48;;;;;;;5.88;0.80;;;;;;;;;;4993477;28;20224;-63
2022/07/15 11:12:15;;;;;;;2.58;0.80;;;;;;;;;;4974679;28;20217;-62
2022/07/15 11:14:46;;;;;;;4.22;0.73;;;;;;;;;;4979163;28;20231;-62
2022/07/15 11:17:11;;;;;;;6.63;0.90;;;;;;;;;;4990843;28;20296;-63
2022/07/15 11:19:37;;;;;;;4.43;0.95;;;;;;;;;;4993432;28;20300;-63
2022/07/15 11:22:02;;;;;;;3.25;0.65;;;;;;;;;;4992204;28;20219;-63
2022/07/15 11:24:28;;;;;;;4.70;0.90;;;;;;;;;;4983847;28;20268;-62
2022/07/15 11:26:53;;;;;;;3.67;0.70;;;;;;;;;;4986671;28;20206;-62
2022/07/15 11:29:18;;;;;;;4.75;0.65;;;;;;;;;;4976222;28;20221;-62
2022/07/15 11:31:44;;;;;;;2.85;0.60;;;;;;;;;;4991827;28;20641;-62
2022/07/15 11:34:09;;;;;;;5.65;0.80;;;;;;;;;;4988407;28;20213;-63
2022/07/15 11:36:34;;;;;;;3.72;1.05;;;;;;;;;;4980637;28;20324;-63
2022/07/15 11:39:00;;;;;;;4.35;1.48;;;;;;;;;;4982444;28;20516;-62
2022/07/15 11:46:54;;;;;;;3.70;0.95;;;;;;;;;;4992661;28;20212;-63
2022/07/15 11:49:25;;;;;;;3.35;0.77;;;;;;;;;;4992222;28;20305;-63
2022/07/15 11:51:50;;;;;;;3.92;0.60;;;;;;;;;;4993181;28;20239;-62
2022/07/15 11:54:15;;;;;;;2.65;0.50;;;;;;;;;;4989469;28;20969;-63
2022/07/15 11:56:41;;;;;;;3.42;0.95;;;;;;;;;;5000559;28;20205;-62
2022/07/15 11:59:06;;;;;;;3.33;0.73;;;;;;;;;;4992429;28;20228;-63
2022/07/15 12:01:31;;;;;;;6.10;2.55;;;;;;;;;;4998747;28;20216;-63
2022/07/15 12:03:57;;;;;;;2.65;0.70;;;;;;;;;;5010402;28;20848;-62
2022/07/15 12:06:30;;;;;;;2.85;0.70;;;;;;;;;;5027565;28;20232;-62
2022/07/15 12:08:57;;;;;;;3.20;1.35;;;;;;;;;;5032273;28;20283;-62
2022/07/15 12:11:24;;;;;;;3.78;0.70;;;;;;;;;;5029638;28;20227;-63
2022/07/15 12:13:50;;;;;;;5.22;0.70;;;;;;;;;;5032212;28;20214;-62
2022/07/15 12:16:18;;;;;;;4.72;0.73;;;;;;;;;;5031454;28;20757;-63
2022/07/15 12:18:43;;;;;;;4.95;0.60;;;;;;;;;;5025298;28;20577;-63
2022/07/15 12:21:08;;;;;;;6.00;0.63;;;;;;;;;;5021151;28;20208;-63
2022/07/15 12:23:33;;;;;;;3.45;0.60;;;;;;;;;;5032036;28;20226;-63
2022/07/15 12:26:00;;;;;;;3.35;0.65;;;;;;;;;;5031094;28;20208;-63
2022/07/15 12:28:29;;;;;;;3.90;0.80;;;;;;;;;;5030534;28;20212;-64
2022/07/15 12:30:55;;;;;;;4.95;0.80;;;;;;;;;;5021241;28;20243;-64
2022/07/15 12:33:21;;;;;;;4.75;0.70;;;;;;;;;;5030978;28;20215;-63
2022/07/15 12:35:46;;;;;;;4.18;0.60;;;;;;;;;;5031747;28;20670;-63
2022/07/15 12:38:29;;;;;;;4.43;0.60;;;;;;;;;;5028994;28;20237;-63
2022/07/15 12:41:04;;;;;;;2.33;0.50;;;;;;;;;;5031899;28;20302;-64
2022/07/15 12:43:53;;;;;;;2.72;0.52;;;;;;;;;;5011861;28;20216;-64
2022/07/15 12:46:19;;;;;;;2.15;0.60;;;;;;;;;;5011386;28;20205;-63
2022/07/15 12:48:47;;;;;;;4.70;0.80;;;;;;;;;;5032003;28;20705;-64
2022/07/15 12:51:12;;;;;;;3.88;0.80;;;;;;;;;;5031153;28;20208;-62
2022/07/15 12:53:38;;;;;;;3.72;0.73;;;;;;;;;;5031276;28;20291;-63
2022/07/15 12:56:05;;;;;;;2.45;0.60;;;;;;;;;;5033470;28;20273;-65
2022/07/15 12:58:32;;;;;;;4.13;0.60;;;;;;;;;;5035522;28;20211;-63
2022/07/15 13:01:06;;;;;;;2.92;0.50;;;;;;;;;;5013664;28;20217;-64
2022/07/15 13:03:32;;;;;;;3.25;0.70;;;;;;;;;;5019591;28;20650;-62
2022/07/15 13:05:58;;;;;;;2.03;0.50;;;;;;;;;;5006669;28;20235;-65
2022/07/15 13:08:24;;;;;;;3.22;0.60;;;;;;;;;;5006873;28;20212;-64
2022/07/15 13:10:50;;;;;;;3.00;0.60;;;;;;;;;;5005078;28;20261;-65
2022/07/15 13:13:16;;;;;;;2.75;0.65;;;;;;;;;;5009639;28;20860;-64
2022/07/15 13:15:42;;;;;;;3.75;0.63;;;;;;;;;;5017862;28;20230;-64
2022/07/15 13:18:07;;;;;;;3.13;0.50;;;;;;;;;;5011064;28;20208;-64
2022/07/15 13:20:32;;;;;;;6.55;0.90;;;;;;;;;;5034779;28;20231;-64
2022/07/15 13:22:58;;;;;;;2.67;0.65;;;;;;;;;;5048655;28;20203;-64
2022/07/15 13:25:23;;;;;;;4.80;0.70;;;;;;;;;;5047156;28;20210;-65
2022/07/15 13:27:48;;;;;;;4.68;0.80;;;;;;;;;;5040478;28;20203;-64
2022/07/15 13:30:14;;;;;;;10.73;0.90;;;;;;;;;;5029655;28;20287;-64
2022/07/15 13:32:39;;;;;;;3.17;0.68;;;;;;;;;;5040620;28;20594;-64
2022/07/15 13:35:05;;;;;;;2.95;0.70;;;;;;;;;;5028916;28;20300;-65
2022/07/15 13:37:30;;;;;;;2.47;0.70;;;;;;;;;;5042436;28;20204;-65
2022/07/15 13:39:56;;;;;;;4.15;0.70;;;;;;;;;;5012996;28;20262;-64
2022/07/15 13:42:24;;;;;;;4.03;1.13;;;;;;;;;;5007755;28;20205;-64
2022/07/15 13:44:49;;;;;;;2.75;0.70;;;;;;;;;;5028211;28;20212;-64
2022/07/15 13:47:15;;;;;;;4.60;0.90;;;;;;;;;;5027708;28;20218;-65
2022/07/15 13:52:25;;;;;;;4.88;0.60;;;;;;;;;;5003486;28;20216;-65
2022/07/15 13:54:50;;;;;;;4.20;0.65;;;;;;;;;;4998761;28;20219;-65
2022/07/15 13:57:16;;;;;;;1.65;0.60;;;;;;;;;;5006577;28;20307;-65
2022/07/15 13:59:41;;;;;;;2.72;0.60;;;;;;;;;;5008684;28;20227;-65
2022/07/15 14:02:06;;;;;;;2.65;0.60;;;;;;;;;;5006816;28;20243;-65
2022/07/15 14:04:32;;;;;;;3.58;0.60;;;;;;;;;;5007647;28;20741;-65
2022/07/15 14:06:57;;;;;;;2.58;0.50;;;;;;;;;;5007718;28;20200;-65
2022/07/15 14:09:22;;;;;;;3.88;0.85;;;;;;;;;;5008644;28;20216;-65
2022/07/15 14:11:48;;;;;;;3.90;0.75;;;;;;;;;;5011847;28;20211;-65
2022/07/15 14:14:13;;;;;;;3.10;0.68;;;;;;;;;;5017250;28;20501;-65
2022/07/15 14:16:38;;;;;;;2.53;0.50;;;;;;;;;;4999465;28;20295;-64
2022/07/15 14:19:04;;;;;;;4.47;0.60;;;;;;;;;;5006988;28;20278;-65
2022/07/15 14:21:29;;;;;;;3.65;0.30;;;;;;;;;;5027293;28;20211;-65
2022/07/15 14:23:59;;;;;;;2.67;0.63;;;;;;;;;;5022143;28;20324;-64
2022/07/15 14:26:25;;;;;;;3.70;0.80;;;;;;;;;;5021664;28;20217;-64
2022/07/15 14:28:50;;;;;;;3.78;0.68;;;;;;;;;;5007989;28;20263;-65
2022/07/15 14:31:16;;;;;;;3.13;0.50;;;;;;;;;;5007370;28;20223;-65
2022/07/15 14:33:41;;;;;;;2.92;0.70;;;;;;;;;;5006158;28;20261;-65
2022/07/15 14:36:09;;;;;;;3.58;0.73;;;;;;;;;;4999522;28;20311;-65
2022/07/15 14:38:34;;;;;;;3.92;0.70;;;;;;;;;;4989539;28;20209;-65
2022/07/15 14:40:59;;;;;;;4.38;0.52;;;;;;;;;;5010133;28;20224;-65
2022/07/15 14:43:25;;;;;;;2.92;0.63;;;;;;;;;;5027124;28;20203;-65
2022/07/15 14:45:50;;;;;;;8.52;0.90;;;;;;;;;;5027006;28;20678;-65
2022/07/15 14:48:15;;;;;;;3.38;0.80;;;;;;;;;;5027365;28;20578;-65
2022/07/15 14:50:41;;;;;;;3.55;0.60;;;;;;;;;;5027253;28;20314;-64
2022/07/15 14:53:06;;;;;;;2.88;0.55;;;;;;;;;;5005676;28;20208;-64
2022/07/15 14:55:31;;;;;;;3.78;0.50;;;;;;;;;;5020380;28;20637;-64
2022/07/15 14:57:57;;;;;;;4.00;0.63;;;;;;;;;;5003244;28;20211;-64